This is the latest recevied weather packets stored in our database for station/object CT2IRJ-11. If no packets are shown the sender has not sent any weather packets the latest 10 day(s).
| Time | Temp. | Humidity | Pressure | Rain* | Wind** | Luminosity | Snow |
|---|---|---|---|---|---|---|---|
| 1777913610 | 21.67° C | 48% | 1016.3 hPa | 0 mm | - | 298 W/m² | - |
| 1777913311 | 21.11° C | 49% | 1016.3 hPa | 0 mm | - | 342 W/m² | - |
| 1777913011 | 20.56° C | 49% | 1016.3 hPa | 0 mm | - | 353 W/m² | - |
| 1777912710 | 21.11° C | 49% | 1016.3 hPa | 0 mm | - | 348 W/m² | - |
| 1777912410 | 21.67° C | 47% | 1015.9 hPa | 0 mm | - | 353 W/m² | - |
| 1777912110 | 21.67° C | 49% | 1015.9 hPa | 0 mm | - | 344 W/m² | - |
| 1777911810 | 21.11° C | 50% | 1015.9 hPa | 0 mm | - | 369 W/m² | - |
| 1777911510 | 21.67° C | 49% | 1015.9 hPa | 0 mm | - | 105 W/m² | - |
| 1777911210 | 21.11° C | 51% | 1015.9 hPa | 0 mm | - | 468 W/m² | - |
| 1777910911 | 20.56° C | 53% | 1015.9 hPa | 0 mm | - | 396 W/m² | - |
| 1777910611 | 21.11° C | 52% | 1015.6 hPa | 0 mm | - | 113 W/m² | - |
| 1777910309 | 21.11° C | 49% | 1015.9 hPa | 0 mm | - | 446 W/m² | - |
| 1777910010 | 19.44° C | 52% | 1015.9 hPa | 0 mm | - | 521 W/m² | - |
| 1777909709 | 19.44° C | 53% | 1015.9 hPa | 0 mm | - | 112 W/m² | - |
| 1777909410 | 18.89° C | 53% | 1015.9 hPa | 0 mm | - | 552 W/m² | - |
| 1777909111 | 19.44° C | 53% | 1015.9 hPa | 0 mm | - | 110 W/m² | - |
| 1777908810 | 19.44° C | 53% | 1015.9 hPa | 0 mm | - | 613 W/m² | - |
| 1777908513 | 20° C | 51% | 1015.9 hPa | 0 mm | - | 113 W/m² | - |
| 1777908210 | 20° C | 52% | 1015.6 hPa | 0 mm | - | 616 W/m² | - |
| 1777907910 | 20° C | 50% | 1015.9 hPa | 0 mm | - | 106 W/m² | - |
| 1777907613 | 19.44° C | 52% | 1016.3 hPa | 0 mm | - | 202 W/m² | - |
| 1777907310 | 20° C | 51% | 1015.9 hPa | 0 mm | - | 165 W/m² | - |
| 1777907010 | 20° C | 50% | 1016.3 hPa | 0 mm | - | 101 W/m² | - |
| 1777906710 | 20° C | 51% | 1016.3 hPa | 0 mm | - | 367 W/m² | - |
| 1777906410 | 20° C | 53% | 1016.3 hPa | 0 mm | - | 174 W/m² | - |
* Rain latest hour (hover to see other rain measurements)
** Current wind speed in m/s (hover to see current wind gust speed)